AAL2062 KCLE-KDCA
Flight info
| Callsign | AAL2062 |
|---|---|
| Flight time | 0h 48m |
| Altitude | 37000 |
| Route | KKIDS1 NUSMM BUCKO FRDMM6 |
| Aircraft | A319/M-SDE3FGHIRWY/LB1 |
Departure
| Time | 2026-05-04 17:43 |
|---|---|
| Airport | Cleveland Hopkins International Airport (KCLE) |
Arrival
| Time | 2026-05-04 18:31 |
|---|---|
| Airport | Ronald Reagan Washington National Airport (KDCA) |
| Time | Latitude | Longitude | Altitude | Speed | Heading |
|---|---|---|---|---|---|
| 2026-05-04 17:31 | 41.40911 | -81.84055 | 769 ft | 0 kts | 141° |
| 2026-05-04 17:36 | 41.40915 | -81.84059 | 768 ft | 3 kts | 140° |
| 2026-05-04 17:36 | 41.40933 | -81.84084 | 769 ft | 4 kts | 117° |
| 2026-05-04 17:36 | 41.40939 | -81.84116 | 767 ft | 4 kts | 78° |
| 2026-05-04 17:36 | 41.40929 | -81.84147 | 769 ft | 4 kts | 49° |
| 2026-05-04 17:37 | 41.40910 | -81.84172 | 768 ft | 4 kts | 41° |
| 2026-05-04 17:37 | 41.40902 | -81.84182 | 767 ft | 0 kts | 44° |
| 2026-05-04 17:38 | 41.40922 | -81.84175 | 767 ft | 8 kts | 3° |
| 2026-05-04 17:39 | 41.41040 | -81.84299 | 769 ft | 13 kts | 312° |
| 2026-05-04 17:39 | 41.41109 | -81.84382 | 769 ft | 15 kts | 347° |
| 2026-05-04 17:39 | 41.41213 | -81.84377 | 769 ft | 14 kts | 27° |
| 2026-05-04 17:40 | 41.41272 | -81.84278 | 769 ft | 14 kts | 50° |
| 2026-05-04 17:40 | 41.41339 | -81.84173 | 769 ft | 15 kts | 50° |
| 2026-05-04 17:40 | 41.41411 | -81.84076 | 769 ft | 10 kts | 5° |
| 2026-05-04 17:40 | 41.41445 | -81.84124 | 769 ft | 8 kts | 318° |
| 2026-05-04 17:41 | 41.41457 | -81.84139 | 769 ft | 0 kts | 319° |
| 2026-05-04 17:41 | 41.41460 | -81.84142 | 769 ft | 3 kts | 319° |
| 2026-05-04 17:41 | 41.41497 | -81.84186 | 768 ft | 11 kts | 314° |
| 2026-05-04 17:42 | 41.41473 | -81.84301 | 768 ft | 22 kts | 230° |
| 2026-05-04 17:42 | 41.41286 | -81.84595 | 769 ft | 69 kts | 229° |
| 2026-05-04 17:42 | 41.40847 | -81.85290 | 768 ft | 124 kts | 230° |
| 2026-05-04 17:42 | 41.40218 | -81.86287 | 1002 ft | 147 kts | 227° |
| 2026-05-04 17:43 | 41.39562 | -81.87324 | 1707 ft | 146 kts | 226° |
| 2026-05-04 17:43 | 41.38843 | -81.88263 | 2339 ft | 145 kts | 210° |
| 2026-05-04 17:43 | 41.37854 | -81.88693 | 2753 ft | 162 kts | 185° |
| 2026-05-04 17:43 | 41.36641 | -81.88588 | 3090 ft | 187 kts | 178° |
| 2026-05-04 17:44 | 41.35256 | -81.88444 | 3490 ft | 212 kts | 180° |
| 2026-05-04 17:44 | 41.33702 | -81.88288 | 4035 ft | 236 kts | 179° |
| 2026-05-04 17:44 | 41.32001 | -81.88074 | 4756 ft | 253 kts | 173° |
| 2026-05-04 17:44 | 41.30387 | -81.86974 | 5565 ft | 277 kts | 141° |
| 2026-05-04 17:45 | 41.29224 | -81.84847 | 6025 ft | 290 kts | 124° |
| 2026-05-04 17:45 | 41.28278 | -81.82470 | 6955 ft | 293 kts | 120° |
| 2026-05-04 17:45 | 41.27384 | -81.80016 | 7858 ft | 297 kts | 119° |
| 2026-05-04 17:45 | 41.26486 | -81.77515 | 8742 ft | 303 kts | 119° |
| 2026-05-04 17:46 | 41.25562 | -81.74979 | 9610 ft | 307 kts | 119° |
| 2026-05-04 17:46 | 41.24604 | -81.72406 | 10276 ft | 319 kts | 120° |
| 2026-05-04 17:46 | 41.23566 | -81.69682 | 10587 ft | 342 kts | 120° |
| 2026-05-04 17:46 | 41.22561 | -81.66697 | 10901 ft | 364 kts | 111° |
| 2026-05-04 17:47 | 41.21955 | -81.63391 | 11536 ft | 374 kts | 100° |
| 2026-05-04 17:47 | 41.21685 | -81.59922 | 12265 ft | 379 kts | 97° |
| 2026-05-04 17:47 | 41.21423 | -81.56419 | 12998 ft | 383 kts | 97° |
| 2026-05-04 17:47 | 41.21151 | -81.52878 | 13740 ft | 387 kts | 97° |
| 2026-05-04 17:48 | 41.20799 | -81.49328 | 14360 ft | 390 kts | 104° |
| 2026-05-04 17:48 | 41.19927 | -81.45914 | 14985 ft | 390 kts | 118° |
| 2026-05-04 17:48 | 41.18513 | -81.42858 | 15613 ft | 389 kts | 131° |
| 2026-05-04 17:48 | 41.16639 | -81.40278 | 16233 ft | 388 kts | 144° |
| 2026-05-04 17:49 | 41.14401 | -81.38303 | 16840 ft | 386 kts | 157° |
| 2026-05-04 17:49 | 41.11933 | -81.36937 | 17456 ft | 387 kts | 163° |
| 2026-05-04 17:49 | 41.09404 | -81.35648 | 18084 ft | 391 kts | 163° |
| 2026-05-04 17:49 | 41.06852 | -81.34342 | 18634 ft | 395 kts | 163° |
| 2026-05-04 17:50 | 41.04279 | -81.33014 | 19186 ft | 399 kts | 163° |
| 2026-05-04 17:50 | 41.01680 | -81.31667 | 19729 ft | 403 kts | 162° |
| 2026-05-04 17:50 | 40.99054 | -81.30306 | 20291 ft | 407 kts | 162° |
| 2026-05-04 17:50 | 40.96401 | -81.28932 | 20825 ft | 411 kts | 162° |
| 2026-05-04 17:51 | 40.93760 | -81.27571 | 21333 ft | 415 kts | 163° |
| 2026-05-04 17:51 | 40.91020 | -81.26165 | 21837 ft | 419 kts | 163° |
| 2026-05-04 17:51 | 40.88281 | -81.24760 | 22331 ft | 423 kts | 162° |
| 2026-05-04 17:51 | 40.85528 | -81.23350 | 22834 ft | 427 kts | 162° |
| 2026-05-04 17:52 | 40.82787 | -81.21944 | 23301 ft | 430 kts | 162° |
| 2026-05-04 17:52 | 40.79949 | -81.20485 | 23722 ft | 434 kts | 162° |
| 2026-05-04 17:52 | 40.77119 | -81.19031 | 24162 ft | 436 kts | 162° |
| 2026-05-04 17:52 | 40.74286 | -81.17576 | 24596 ft | 439 kts | 162° |
| 2026-05-04 17:53 | 40.71435 | -81.16117 | 25013 ft | 441 kts | 162° |
| 2026-05-04 17:53 | 40.68605 | -81.14670 | 25424 ft | 443 kts | 162° |
| 2026-05-04 17:53 | 40.65720 | -81.13199 | 25840 ft | 446 kts | 162° |
| 2026-05-04 17:53 | 40.62780 | -81.11700 | 26263 ft | 448 kts | 162° |
| 2026-05-04 17:54 | 40.59901 | -81.10238 | 26673 ft | 451 kts | 162° |
| 2026-05-04 17:54 | 40.56969 | -81.08749 | 27079 ft | 453 kts | 162° |
| 2026-05-04 17:54 | 40.54016 | -81.07247 | 27489 ft | 455 kts | 162° |
| 2026-05-04 17:54 | 40.51062 | -81.05745 | 27892 ft | 457 kts | 162° |
| 2026-05-04 17:55 | 40.48093 | -81.04238 | 28286 ft | 459 kts | 162° |
| 2026-05-04 17:55 | 40.45099 | -81.02720 | 28653 ft | 462 kts | 162° |
| 2026-05-04 17:55 | 40.42094 | -81.01200 | 29024 ft | 464 kts | 162° |
| 2026-05-04 17:55 | 40.39073 | -80.99676 | 29390 ft | 466 kts | 162° |
| 2026-05-04 17:56 | 40.36037 | -80.98145 | 29742 ft | 469 kts | 162° |
| 2026-05-04 17:56 | 40.32987 | -80.96606 | 30073 ft | 471 kts | 162° |
| 2026-05-04 17:56 | 40.29924 | -80.95061 | 30383 ft | 472 kts | 162° |
| 2026-05-04 17:56 | 40.26860 | -80.93516 | 30794 ft | 471 kts | 162° |
| 2026-05-04 17:57 | 40.23796 | -80.91971 | 31203 ft | 471 kts | 162° |
| 2026-05-04 17:57 | 40.20739 | -80.90429 | 31595 ft | 471 kts | 162° |
| 2026-05-04 17:57 | 40.17681 | -80.88890 | 31973 ft | 471 kts | 162° |
| 2026-05-04 17:57 | 40.14621 | -80.87355 | 32364 ft | 471 kts | 162° |
| 2026-05-04 17:58 | 40.11561 | -80.85826 | 32762 ft | 471 kts | 162° |
| 2026-05-04 17:58 | 40.08497 | -80.84298 | 32877 ft | 471 kts | 162° |
| 2026-05-04 17:58 | 40.02696 | -80.80254 | 32893 ft | 477 kts | 145° |
| 2026-05-04 17:59 | 39.97898 | -80.74244 | 32901 ft | 480 kts | 135° |
| 2026-05-04 18:00 | 39.90961 | -80.64830 | 32908 ft | 480 kts | 136° |
| 2026-05-04 18:00 | 39.86313 | -80.58571 | 32899 ft | 481 kts | 136° |
| 2026-05-04 18:01 | 39.82449 | -80.53345 | 32911 ft | 483 kts | 136° |
| 2026-05-04 18:01 | 39.77798 | -80.47055 | 32912 ft | 482 kts | 136° |
| 2026-05-04 18:02 | 39.70807 | -80.37642 | 32920 ft | 482 kts | 136° |
| 2026-05-04 18:02 | 39.66142 | -80.31387 | 32932 ft | 482 kts | 136° |
| 2026-05-04 18:03 | 39.61468 | -80.25141 | 32916 ft | 483 kts | 136° |
| 2026-05-04 18:03 | 39.56764 | -80.18857 | 32932 ft | 486 kts | 136° |
| 2026-05-04 18:04 | 39.52055 | -80.12568 | 32927 ft | 486 kts | 136° |
| 2026-05-04 18:04 | 39.47338 | -80.06277 | 32582 ft | 487 kts | 136° |
| 2026-05-04 18:05 | 39.44978 | -80.03133 | 32365 ft | 487 kts | 136° |
| 2026-05-04 18:05 | 39.42612 | -79.99996 | 32159 ft | 487 kts | 136° |
| 2026-05-04 18:05 | 39.40244 | -79.96865 | 31954 ft | 487 kts | 136° |
| 2026-05-04 18:05 | 39.37873 | -79.93732 | 31755 ft | 487 kts | 136° |
| 2026-05-04 18:06 | 39.33220 | -79.87308 | 31323 ft | 494 kts | 129° |
| 2026-05-04 18:06 | 39.31314 | -79.83595 | 31137 ft | 497 kts | 120° |
| 2026-05-04 18:06 | 39.29870 | -79.79536 | 30971 ft | 499 kts | 110° |
| 2026-05-04 18:07 | 39.28935 | -79.75238 | 30859 ft | 497 kts | 100° |
| 2026-05-04 18:07 | 39.28471 | -79.70818 | 30661 ft | 497 kts | 94° |
| 2026-05-04 18:07 | 39.28128 | -79.66438 | 30419 ft | 497 kts | 95° |
| 2026-05-04 18:07 | 39.27769 | -79.62000 | 30171 ft | 497 kts | 95° |
| 2026-05-04 18:08 | 39.27409 | -79.57561 | 29913 ft | 498 kts | 95° |
| 2026-05-04 18:08 | 39.27048 | -79.53117 | 29611 ft | 498 kts | 95° |
| 2026-05-04 18:08 | 39.26690 | -79.48677 | 29327 ft | 497 kts | 95° |
| 2026-05-04 18:08 | 39.26332 | -79.44250 | 29064 ft | 495 kts | 95° |
| 2026-05-04 18:09 | 39.25611 | -79.35469 | 28571 ft | 489 kts | 95° |
| 2026-05-04 18:09 | 39.24893 | -79.26796 | 28087 ft | 478 kts | 95° |
| 2026-05-04 18:10 | 39.24540 | -79.22596 | 27869 ft | 465 kts | 95° |
| 2026-05-04 18:10 | 39.24194 | -79.18480 | 27394 ft | 459 kts | 95° |
| 2026-05-04 18:10 | 39.23850 | -79.14396 | 26819 ft | 456 kts | 95° |
| 2026-05-04 18:10 | 39.23507 | -79.10359 | 26304 ft | 451 kts | 95° |
| 2026-05-04 18:11 | 39.23167 | -79.06366 | 25799 ft | 446 kts | 95° |
| 2026-05-04 18:11 | 39.22829 | -79.02417 | 25305 ft | 441 kts | 95° |
| 2026-05-04 18:11 | 39.22491 | -78.98497 | 24814 ft | 437 kts | 95° |
| 2026-05-04 18:11 | 39.22152 | -78.94615 | 24323 ft | 434 kts | 95° |
| 2026-05-04 18:12 | 39.21796 | -78.90765 | 23840 ft | 431 kts | 96° |
| 2026-05-04 18:12 | 39.21423 | -78.86941 | 23330 ft | 428 kts | 96° |
| 2026-05-04 18:12 | 39.21043 | -78.83148 | 22836 ft | 425 kts | 96° |
| 2026-05-04 18:12 | 39.20664 | -78.79385 | 22365 ft | 422 kts | 96° |
| 2026-05-04 18:13 | 39.20291 | -78.75653 | 21899 ft | 418 kts | 96° |
| 2026-05-04 18:13 | 39.19926 | -78.71945 | 21430 ft | 415 kts | 96° |
| 2026-05-04 18:13 | 39.19214 | -78.64626 | 20512 ft | 408 kts | 96° |
| 2026-05-04 18:14 | 39.18862 | -78.61004 | 20055 ft | 405 kts | 97° |
| 2026-05-04 18:14 | 39.18509 | -78.57415 | 19608 ft | 402 kts | 97° |
| 2026-05-04 18:14 | 39.18156 | -78.53846 | 19159 ft | 399 kts | 97° |
| 2026-05-04 18:15 | 39.17454 | -78.46808 | 18277 ft | 393 kts | 97° |
| 2026-05-04 18:15 | 39.16752 | -78.39874 | 17368 ft | 388 kts | 97° |
| 2026-05-04 18:15 | 39.16333 | -78.36460 | 16942 ft | 385 kts | 104° |
| 2026-05-04 18:16 | 39.15563 | -78.33165 | 16586 ft | 384 kts | 109° |
| 2026-05-04 18:16 | 39.14747 | -78.29897 | 16230 ft | 382 kts | 108° |
| 2026-05-04 18:16 | 39.13941 | -78.26642 | 15877 ft | 381 kts | 108° |
| 2026-05-04 18:17 | 39.12343 | -78.20174 | 15175 ft | 378 kts | 108° |
| 2026-05-04 18:17 | 39.11545 | -78.16962 | 14825 ft | 376 kts | 109° |
| 2026-05-04 18:17 | 39.09957 | -78.10577 | 14124 ft | 373 kts | 109° |
| 2026-05-04 18:18 | 39.09166 | -78.07445 | 13789 ft | 372 kts | 109° |
| 2026-05-04 18:18 | 39.08360 | -78.04293 | 13413 ft | 370 kts | 109° |
| 2026-05-04 18:18 | 39.07539 | -78.01116 | 13063 ft | 368 kts | 109° |
| 2026-05-04 18:18 | 39.06746 | -77.98041 | 12732 ft | 366 kts | 109° |
| 2026-05-04 18:19 | 39.05181 | -77.91932 | 12209 ft | 343 kts | 110° |
| 2026-05-04 18:19 | 39.04448 | -77.89077 | 12041 ft | 331 kts | 110° |
| 2026-05-04 18:19 | 39.03730 | -77.86295 | 11732 ft | 326 kts | 110° |
| 2026-05-04 18:20 | 39.03023 | -77.83550 | 11480 ft | 321 kts | 110° |
| 2026-05-04 18:20 | 39.02324 | -77.80840 | 11261 ft | 318 kts | 110° |
| 2026-05-04 18:20 | 39.01629 | -77.78144 | 11010 ft | 316 kts | 110° |
| 2026-05-04 18:20 | 39.00943 | -77.75477 | 10753 ft | 314 kts | 110° |
| 2026-05-04 18:21 | 39.00261 | -77.72826 | 10509 ft | 311 kts | 110° |
| 2026-05-04 18:21 | 38.99579 | -77.70188 | 10264 ft | 310 kts | 110° |
| 2026-05-04 18:21 | 38.98901 | -77.67569 | 10028 ft | 308 kts | 110° |
| 2026-05-04 18:21 | 38.98224 | -77.64968 | 9851 ft | 306 kts | 110° |
| 2026-05-04 18:22 | 38.97506 | -77.62391 | 9536 ft | 305 kts | 112° |
| 2026-05-04 18:22 | 38.96764 | -77.59878 | 9229 ft | 297 kts | 113° |
| 2026-05-04 18:22 | 38.96024 | -77.57423 | 8819 ft | 296 kts | 112° |
| 2026-05-04 18:22 | 38.95279 | -77.54942 | 8321 ft | 299 kts | 111° |
| 2026-05-04 18:23 | 38.94863 | -77.52334 | 7839 ft | 299 kts | 93° |
| 2026-05-04 18:23 | 38.95060 | -77.49686 | 7362 ft | 298 kts | 75° |
| 2026-05-04 18:23 | 38.95790 | -77.47224 | 6889 ft | 293 kts | 65° |
| 2026-05-04 18:23 | 38.96599 | -77.44844 | 6426 ft | 289 kts | 65° |
| 2026-05-04 18:24 | 38.97391 | -77.42488 | 5939 ft | 285 kts | 66° |
| 2026-05-04 18:24 | 38.98168 | -77.40159 | 5457 ft | 282 kts | 67° |
| 2026-05-04 18:24 | 38.98897 | -77.37851 | 5060 ft | 273 kts | 75° |
| 2026-05-04 18:24 | 38.99092 | -77.35533 | 4999 ft | 252 kts | 98° |
| 2026-05-04 18:25 | 38.98940 | -77.33296 | 4931 ft | 248 kts | 97° |
| 2026-05-04 18:25 | 38.98779 | -77.31077 | 4836 ft | 250 kts | 98° |
| 2026-05-04 18:25 | 38.98577 | -77.28895 | 4531 ft | 242 kts | 101° |
| 2026-05-04 18:25 | 38.98321 | -77.26784 | 4164 ft | 236 kts | 102° |
| 2026-05-04 18:26 | 38.98048 | -77.24747 | 3829 ft | 228 kts | 102° |
| 2026-05-04 18:26 | 38.97814 | -77.22762 | 3436 ft | 219 kts | 100° |
| 2026-05-04 18:26 | 38.97606 | -77.20894 | 3123 ft | 203 kts | 102° |
| 2026-05-04 18:26 | 38.97382 | -77.19165 | 2894 ft | 190 kts | 104° |
| 2026-05-04 18:27 | 38.97131 | -77.17520 | 2783 ft | 187 kts | 106° |
| 2026-05-04 18:27 | 38.96764 | -77.15930 | 2673 ft | 184 kts | 115° |
| 2026-05-04 18:27 | 38.96074 | -77.14580 | 2586 ft | 179 kts | 140° |
| 2026-05-04 18:27 | 38.95102 | -77.13605 | 2487 ft | 175 kts | 148° |
| 2026-05-04 18:28 | 38.94132 | -77.12668 | 2219 ft | 174 kts | 148° |
| 2026-05-04 18:28 | 38.93162 | -77.11739 | 2030 ft | 175 kts | 147° |
| 2026-05-04 18:28 | 38.92173 | -77.10841 | 1704 ft | 172 kts | 151° |
| 2026-05-04 18:28 | 38.91227 | -77.09919 | 1404 ft | 167 kts | 140° |
| 2026-05-04 18:29 | 38.90636 | -77.08715 | 1299 ft | 158 kts | 114° |
| 2026-05-04 18:29 | 38.90285 | -77.07393 | 1073 ft | 154 kts | 120° |
| 2026-05-04 18:29 | 38.89768 | -77.06241 | 904 ft | 144 kts | 134° |
| 2026-05-04 18:29 | 38.89048 | -77.05396 | 722 ft | 141 kts | 144° |
| 2026-05-04 18:30 | 38.87439 | -77.04046 | 360 ft | 134 kts | 166° |
| 2026-05-04 18:30 | 38.86519 | -77.03908 | 146 ft | 134 kts | 178° |
| 2026-05-04 18:30 | 38.85610 | -77.03822 | 25 ft | 121 kts | 175° |
| 2026-05-04 18:31 | 38.85058 | -77.03768 | 24 ft | 50 kts | 175° |
| 2026-05-04 18:31 | 38.84877 | -77.03832 | 25 ft | 17 kts | 256° |
| 2026-05-04 18:31 | 38.84875 | -77.03925 | 24 ft | 9 kts | 274° |
| 2026-05-04 18:31 | 38.84931 | -77.03954 | 24 ft | 11 kts | 356° |
| 2026-05-04 18:32 | 38.85008 | -77.03963 | 24 ft | 11 kts | 353° |
| 2026-05-04 18:32 | 38.85090 | -77.03971 | 24 ft | 13 kts | 356° |
| 2026-05-04 18:32 | 38.85184 | -77.03980 | 24 ft | 14 kts | 355° |
| 2026-05-04 18:32 | 38.85279 | -77.03989 | 24 ft | 12 kts | 355° |
| 2026-05-04 18:33 | 38.85336 | -77.04028 | 24 ft | 9 kts | 260° |
| 2026-05-04 18:33 | 38.85313 | -77.04118 | 24 ft | 11 kts | 252° |
| 2026-05-04 18:33 | 38.85312 | -77.04180 | 27 ft | 6 kts | 322° |
| 2026-05-04 18:33 | 38.85346 | -77.04197 | 24 ft | 3 kts | 343° |
| 2026-05-04 18:34 | 38.85354 | -77.04200 | 24 ft | 1 kts | 342° |
| 2026-05-04 18:34 | 38.85355 | -77.04200 | 27 ft | 0 kts | 342° |